Terminal Aerodrome Forecast
Issued by NWS

Home | Current Version | Previous Version | Text Only | Print | Product List | Glossary On
Versions: 1 2 3 4 5 6 7 8 9 10 11 12 13 14 15 16 17 18 19 20
000
FTUS43 KJKL 200900 AAA
TAFSJS
TAF AMD
KSJS 200955Z 2010/2106 35006KT 5SM -TSRA SCT010 BKN035CB
     FM201020 VRB03KT 3SM BR SCT035
     FM201300 VRB04KT P6SM BKN050
     FM201800 26004KT P6SM VCTS SCT025CB BKN050=

USA.gov is the U.S. government's official web portal to all federal, state and local government web resources and services.